sensor_id;sensor_type;location;lat;lon;timestamp;P1;durP1;ratioP1;P2;durP2;ratioP2
66567;SDS011;53422;49.296;6.900;2023-12-28T00:00:05;7.82;;;3.17;;
66567;SDS011;53422;49.296;6.900;2023-12-28T00:02:31;6.95;;;2.53;;
66567;SDS011;53422;49.296;6.900;2023-12-28T00:04:56;6.03;;;3.13;;
66567;SDS011;53422;49.296;6.900;2023-12-28T00:07:22;7.10;;;3.38;;
66567;SDS011;53422;49.296;6.900;2023-12-28T00:09:48;12.68;;;5.55;;
66567;SDS011;53422;49.296;6.900;2023-12-28T00:12:13;14.68;;;4.75;;
66567;SDS011;53422;49.296;6.900;2023-12-28T00:14:39;22.70;;;7.00;;
66567;SDS011;53422;49.296;6.900;2023-12-28T00:17:05;20.25;;;7.15;;
66567;SDS011;53422;49.296;6.900;2023-12-28T00:19:30;11.35;;;5.22;;
66567;SDS011;53422;49.296;6.900;2023-12-28T00:21:56;9.65;;;4.93;;
66567;SDS011;53422;49.296;6.900;2023-12-28T00:24:22;10.98;;;4.88;;
66567;SDS011;53422;49.296;6.900;2023-12-28T00:26:47;12.25;;;4.72;;
66567;SDS011;53422;49.296;6.900;2023-12-28T00:29:13;7.60;;;3.53;;
66567;SDS011;53422;49.296;6.900;2023-12-28T00:31:39;7.13;;;3.95;;
66567;SDS011;53422;49.296;6.900;2023-12-28T00:34:04;6.60;;;2.70;;
66567;SDS011;53422;49.296;6.900;2023-12-28T00:36:30;7.50;;;3.33;;
66567;SDS011;53422;49.296;6.900;2023-12-28T00:38:56;5.43;;;2.33;;
66567;SDS011;53422;49.296;6.900;2023-12-28T00:41:22;5.57;;;2.92;;
66567;SDS011;53422;49.296;6.900;2023-12-28T00:43:48;8.63;;;3.28;;
66567;SDS011;53422;49.296;6.900;2023-12-28T00:46:13;8.27;;;3.50;;
66567;SDS011;53422;49.296;6.900;2023-12-28T00:48:39;4.57;;;2.20;;
66567;SDS011;53422;49.296;6.900;2023-12-28T00:51:04;6.97;;;2.58;;
66567;SDS011;53422;49.296;6.900;2023-12-28T00:53:30;6.85;;;3.13;;
66567;SDS011;53422;49.296;6.900;2023-12-28T00:55:56;5.45;;;2.58;;
66567;SDS011;53422;49.296;6.900;2023-12-28T00:58:21;7.65;;;2.83;;
66567;SDS011;53422;49.296;6.900;2023-12-28T01:00:47;5.35;;;2.17;;
66567;SDS011;53422;49.296;6.900;2023-12-28T01:03:14;7.82;;;3.13;;
66567;SDS011;53422;49.296;6.900;2023-12-28T01:05:43;7.57;;;3.00;;
66567;SDS011;53422;49.296;6.900;2023-12-28T01:08:12;5.85;;;2.88;;
66567;SDS011;53422;49.296;6.900;2023-12-28T01:10:38;6.07;;;2.35;;
66567;SDS011;53422;49.296;6.900;2023-12-28T01:13:03;5.85;;;2.45;;
66567;SDS011;53422;49.296;6.900;2023-12-28T01:15:29;9.07;;;2.67;;
66567;SDS011;53422;49.296;6.900;2023-12-28T01:17:55;7.05;;;2.88;;
66567;SDS011;53422;49.296;6.900;2023-12-28T01:20:21;5.00;;;2.40;;
66567;SDS011;53422;49.296;6.900;2023-12-28T01:22:47;5.93;;;2.88;;
66567;SDS011;53422;49.296;6.900;2023-12-28T01:25:14;7.60;;;2.70;;
66567;SDS011;53422;49.296;6.900;2023-12-28T01:27:40;6.72;;;2.80;;
66567;SDS011;53422;49.296;6.900;2023-12-28T01:30:06;4.40;;;2.20;;
66567;SDS011;53422;49.296;6.900;2023-12-28T01:32:32;6.40;;;3.05;;
66567;SDS011;53422;49.296;6.900;2023-12-28T01:34:58;7.85;;;2.67;;
66567;SDS011;53422;49.296;6.900;2023-12-28T01:37:23;6.93;;;3.53;;
66567;SDS011;53422;49.296;6.900;2023-12-28T01:39:49;7.15;;;2.40;;
66567;SDS011;53422;49.296;6.900;2023-12-28T01:42:15;6.53;;;2.40;;
66567;SDS011;53422;49.296;6.900;2023-12-28T01:44:40;7.50;;;2.67;;
66567;SDS011;53422;49.296;6.900;2023-12-28T01:47:06;8.32;;;3.55;;
66567;SDS011;53422;49.296;6.900;2023-12-28T01:49:32;6.30;;;2.35;;
66567;SDS011;53422;49.296;6.900;2023-12-28T01:52:00;5.68;;;2.30;;
66567;SDS011;53422;49.296;6.900;2023-12-28T01:54:26;7.85;;;3.35;;
66567;SDS011;53422;49.296;6.900;2023-12-28T01:56:53;5.25;;;2.10;;
66567;SDS011;53422;49.296;6.900;2023-12-28T01:59:19;5.72;;;2.97;;
66567;SDS011;53422;49.296;6.900;2023-12-28T02:01:45;6.25;;;2.83;;
66567;SDS011;53422;49.296;6.900;2023-12-28T02:04:11;6.20;;;2.40;;
66567;SDS011;53422;49.296;6.900;2023-12-28T02:06:38;5.68;;;2.63;;
66567;SDS011;53422;49.296;6.900;2023-12-28T02:09:04;3.90;;;1.73;;
66567;SDS011;53422;49.296;6.900;2023-12-28T02:11:29;3.15;;;1.73;;
66567;SDS011;53422;49.296;6.900;2023-12-28T02:13:56;5.13;;;2.10;;
66567;SDS011;53422;49.296;6.900;2023-12-28T02:18:51;5.70;;;2.25;;
66567;SDS011;53422;49.296;6.900;2023-12-28T02:21:21;5.13;;;2.50;;
66567;SDS011;53422;49.296;6.900;2023-12-28T02:23:49;4.00;;;1.90;;
66567;SDS011;53422;49.296;6.900;2023-12-28T02:26:16;5.85;;;2.42;;
66567;SDS011;53422;49.296;6.900;2023-12-28T02:28:42;5.82;;;2.45;;
66567;SDS011;53422;49.296;6.900;2023-12-28T02:31:11;5.85;;;2.55;;
66567;SDS011;53422;49.296;6.900;2023-12-28T02:33:48;3.47;;;1.70;;
66567;SDS011;53422;49.296;6.900;2023-12-28T02:36:18;6.40;;;2.63;;
66567;SDS011;53422;49.296;6.900;2023-12-28T02:38:45;4.10;;;1.90;;
66567;SDS011;53422;49.296;6.900;2023-12-28T02:41:13;6.15;;;2.90;;
66567;SDS011;53422;49.296;6.900;2023-12-28T02:43:40;5.10;;;2.00;;
66567;SDS011;53422;49.296;6.900;2023-12-28T02:46:06;4.53;;;1.95;;
66567;SDS011;53422;49.296;6.900;2023-12-28T02:48:32;5.25;;;2.00;;
66567;SDS011;53422;49.296;6.900;2023-12-28T02:50:57;4.57;;;2.67;;
66567;SDS011;53422;49.296;6.900;2023-12-28T02:53:23;5.00;;;1.85;;
66567;SDS011;53422;49.296;6.900;2023-12-28T02:55:49;5.15;;;2.72;;
66567;SDS011;53422;49.296;6.900;2023-12-28T02:58:14;5.13;;;2.10;;
66567;SDS011;53422;49.296;6.900;2023-12-28T03:00:40;3.63;;;1.63;;
66567;SDS011;53422;49.296;6.900;2023-12-28T03:03:05;5.35;;;2.10;;
66567;SDS011;53422;49.296;6.900;2023-12-28T03:05:31;5.55;;;2.00;;
66567;SDS011;53422;49.296;6.900;2023-12-28T03:07:57;3.95;;;2.08;;
66567;SDS011;53422;49.296;6.900;2023-12-28T03:10:23;9.85;;;2.53;;
66567;SDS011;53422;49.296;6.900;2023-12-28T03:12:49;6.55;;;2.03;;
66567;SDS011;53422;49.296;6.900;2023-12-28T03:15:15;2.10;;;1.35;;
66567;SDS011;53422;49.296;6.900;2023-12-28T03:17:40;4.93;;;2.30;;
66567;SDS011;53422;49.296;6.900;2023-12-28T03:20:06;4.72;;;2.13;;
66567;SDS011;53422;49.296;6.900;2023-12-28T03:22:32;5.78;;;3.70;;
66567;SDS011;53422;49.296;6.900;2023-12-28T03:24:58;4.07;;;1.92;;
66567;SDS011;53422;49.296;6.900;2023-12-28T03:27:24;3.08;;;1.80;;
66567;SDS011;53422;49.296;6.900;2023-12-28T03:29:49;2.97;;;1.60;;
66567;SDS011;53422;49.296;6.900;2023-12-28T03:32:15;4.00;;;1.88;;
66567;SDS011;53422;49.296;6.900;2023-12-28T03:34:41;5.07;;;1.80;;
66567;SDS011;53422;49.296;6.900;2023-12-28T03:37:06;5.03;;;2.38;;
66567;SDS011;53422;49.296;6.900;2023-12-28T03:39:32;4.05;;;2.45;;
66567;SDS011;53422;49.296;6.900;2023-12-28T03:41:59;5.40;;;1.90;;
66567;SDS011;53422;49.296;6.900;2023-12-28T03:44:24;6.00;;;2.45;;
66567;SDS011;53422;49.296;6.900;2023-12-28T03:46:50;4.18;;;2.10;;
66567;SDS011;53422;49.296;6.900;2023-12-28T03:49:17;3.63;;;1.90;;
66567;SDS011;53422;49.296;6.900;2023-12-28T03:51:43;3.35;;;1.65;;
66567;SDS011;53422;49.296;6.900;2023-12-28T03:54:09;3.30;;;1.83;;
66567;SDS011;53422;49.296;6.900;2023-12-28T03:56:35;4.68;;;2.42;;
66567;SDS011;53422;49.296;6.900;2023-12-28T03:59:02;5.80;;;2.75;;
66567;SDS011;53422;49.296;6.900;2023-12-28T04:01:27;4.88;;;2.15;;
66567;SDS011;53422;49.296;6.900;2023-12-28T04:03:53;4.72;;;2.17;;
66567;SDS011;53422;49.296;6.900;2023-12-28T04:06:19;5.35;;;2.28;;
66567;SDS011;53422;49.296;6.900;2023-12-28T04:08:44;4.22;;;2.72;;
66567;SDS011;53422;49.296;6.900;2023-12-28T04:11:10;2.00;;;1.05;;
66567;SDS011;53422;49.296;6.900;2023-12-28T04:13:36;5.82;;;2.05;;
66567;SDS011;53422;49.296;6.900;2023-12-28T04:16:02;4.03;;;1.83;;
66567;SDS011;53422;49.296;6.900;2023-12-28T04:18:28;3.92;;;1.85;;
66567;SDS011;53422;49.296;6.900;2023-12-28T04:20:54;5.03;;;1.92;;
66567;SDS011;53422;49.296;6.900;2023-12-28T04:23:20;2.22;;;1.30;;
66567;SDS011;53422;49.296;6.900;2023-12-28T04:25:46;4.88;;;2.05;;
66567;SDS011;53422;49.296;6.900;2023-12-28T04:28:11;4.10;;;2.47;;
66567;SDS011;53422;49.296;6.900;2023-12-28T04:30:37;4.03;;;1.58;;
66567;SDS011;53422;49.296;6.900;2023-12-28T04:33:03;4.85;;;2.00;;
66567;SDS011;53422;49.296;6.900;2023-12-28T04:35:28;5.15;;;2.10;;
66567;SDS011;53422;49.296;6.900;2023-12-28T04:37:54;5.47;;;1.95;;
66567;SDS011;53422;49.296;6.900;2023-12-28T04:40:20;5.28;;;2.15;;
66567;SDS011;53422;49.296;6.900;2023-12-28T04:42:46;3.60;;;1.75;;
66567;SDS011;53422;49.296;6.900;2023-12-28T04:45:11;3.25;;;1.65;;
66567;SDS011;53422;49.296;6.900;2023-12-28T04:47:37;4.05;;;1.98;;
66567;SDS011;53422;49.296;6.900;2023-12-28T04:50:03;4.47;;;1.70;;
66567;SDS011;53422;49.296;6.900;2023-12-28T04:52:29;2.58;;;1.60;;
66567;SDS011;53422;49.296;6.900;2023-12-28T04:54:55;3.53;;;1.58;;
66567;SDS011;53422;49.296;6.900;2023-12-28T04:57:21;4.07;;;1.90;;
66567;SDS011;53422;49.296;6.900;2023-12-28T04:59:49;3.72;;;1.90;;
66567;SDS011;53422;49.296;6.900;2023-12-28T05:02:15;3.58;;;1.90;;
66567;SDS011;53422;49.296;6.900;2023-12-28T05:04:41;3.42;;;1.58;;
66567;SDS011;53422;49.296;6.900;2023-12-28T05:07:06;3.65;;;1.70;;
66567;SDS011;53422;49.296;6.900;2023-12-28T05:09:32;4.88;;;2.10;;
66567;SDS011;53422;49.296;6.900;2023-12-28T05:11:58;3.35;;;1.85;;
66567;SDS011;53422;49.296;6.900;2023-12-28T05:14:23;3.03;;;1.70;;
66567;SDS011;53422;49.296;6.900;2023-12-28T05:16:49;4.20;;;2.00;;
66567;SDS011;53422;49.296;6.900;2023-12-28T05:19:15;4.40;;;1.60;;
66567;SDS011;53422;49.296;6.900;2023-12-28T05:21:41;3.25;;;1.42;;
66567;SDS011;53422;49.296;6.900;2023-12-28T05:24:06;3.88;;;1.73;;
66567;SDS011;53422;49.296;6.900;2023-12-28T05:26:32;3.42;;;1.70;;
66567;SDS011;53422;49.296;6.900;2023-12-28T05:28:58;5.47;;;1.92;;
66567;SDS011;53422;49.296;6.900;2023-12-28T05:31:23;3.63;;;1.73;;
66567;SDS011;53422;49.296;6.900;2023-12-28T05:33:49;3.55;;;1.58;;
66567;SDS011;53422;49.296;6.900;2023-12-28T05:36:15;3.70;;;1.83;;
66567;SDS011;53422;49.296;6.900;2023-12-28T05:38:41;3.00;;;1.55;;
66567;SDS011;53422;49.296;6.900;2023-12-28T05:41:09;3.50;;;1.63;;
66567;SDS011;53422;49.296;6.900;2023-12-28T05:43:34;3.35;;;1.60;;
66567;SDS011;53422;49.296;6.900;2023-12-28T05:46:00;4.53;;;1.63;;
66567;SDS011;53422;49.296;6.900;2023-12-28T05:48:26;3.13;;;1.70;;
66567;SDS011;53422;49.296;6.900;2023-12-28T05:50:52;3.40;;;1.50;;
66567;SDS011;53422;49.296;6.900;2023-12-28T05:53:17;2.88;;;1.42;;
66567;SDS011;53422;49.296;6.900;2023-12-28T05:55:43;4.05;;;1.75;;
66567;SDS011;53422;49.296;6.900;2023-12-28T05:58:09;3.40;;;1.75;;
66567;SDS011;53422;49.296;6.900;2023-12-28T06:00:35;3.63;;;1.40;;
66567;SDS011;53422;49.296;6.900;2023-12-28T06:03:04;8.68;;;2.10;;
66567;SDS011;53422;49.296;6.900;2023-12-28T06:05:30;3.28;;;1.52;;
66567;SDS011;53422;49.296;6.900;2023-12-28T06:07:56;3.80;;;1.92;;
66567;SDS011;53422;49.296;6.900;2023-12-28T06:10:22;3.95;;;1.90;;
66567;SDS011;53422;49.296;6.900;2023-12-28T06:12:55;4.30;;;1.77;;
66567;SDS011;53422;49.296;6.900;2023-12-28T06:15:20;4.75;;;1.60;;
66567;SDS011;53422;49.296;6.900;2023-12-28T06:17:46;3.67;;;1.48;;
66567;SDS011;53422;49.296;6.900;2023-12-28T06:20:12;3.83;;;2.40;;
66567;SDS011;53422;49.296;6.900;2023-12-28T06:22:38;3.10;;;2.38;;
66567;SDS011;53422;49.296;6.900;2023-12-28T06:25:03;4.20;;;2.83;;
66567;SDS011;53422;49.296;6.900;2023-12-28T06:27:29;2.78;;;1.50;;
66567;SDS011;53422;49.296;6.900;2023-12-28T06:29:55;3.78;;;1.77;;
66567;SDS011;53422;49.296;6.900;2023-12-28T06:32:21;3.25;;;2.33;;
66567;SDS011;53422;49.296;6.900;2023-12-28T06:34:47;6.75;;;2.58;;
66567;SDS011;53422;49.296;6.900;2023-12-28T06:37:13;2.78;;;1.45;;
66567;SDS011;53422;49.296;6.900;2023-12-28T06:39:39;3.28;;;1.75;;
66567;SDS011;53422;49.296;6.900;2023-12-28T06:42:05;3.90;;;2.17;;
66567;SDS011;53422;49.296;6.900;2023-12-28T06:44:31;6.35;;;2.67;;
66567;SDS011;53422;49.296;6.900;2023-12-28T06:46:57;18.42;;;5.97;;
66567;SDS011;53422;49.296;6.900;2023-12-28T06:49:23;8.88;;;3.78;;
66567;SDS011;53422;49.296;6.900;2023-12-28T06:51:50;4.63;;;2.47;;
66567;SDS011;53422;49.296;6.900;2023-12-28T06:54:16;6.45;;;2.40;;
66567;SDS011;53422;49.296;6.900;2023-12-28T06:56:42;3.03;;;1.65;;
66567;SDS011;53422;49.296;6.900;2023-12-28T06:59:08;3.92;;;1.70;;
66567;SDS011;53422;49.296;6.900;2023-12-28T07:01:38;5.57;;;1.95;;
66567;SDS011;53422;49.296;6.900;2023-12-28T07:04:04;3.05;;;1.67;;
66567;SDS011;53422;49.296;6.900;2023-12-28T07:06:30;4.05;;;2.00;;
66567;SDS011;53422;49.296;6.900;2023-12-28T07:08:56;4.22;;;2.00;;
66567;SDS011;53422;49.296;6.900;2023-12-28T07:11:21;5.75;;;2.13;;
66567;SDS011;53422;49.296;6.900;2023-12-28T07:13:47;3.65;;;1.95;;
66567;SDS011;53422;49.296;6.900;2023-12-28T07:16:13;3.45;;;1.65;;
66567;SDS011;53422;49.296;6.900;2023-12-28T07:18:39;3.83;;;1.92;;
66567;SDS011;53422;49.296;6.900;2023-12-28T07:21:05;2.58;;;1.35;;
66567;SDS011;53422;49.296;6.900;2023-12-28T07:23:37;5.80;;;1.90;;
66567;SDS011;53422;49.296;6.900;2023-12-28T07:26:03;3.17;;;1.85;;
66567;SDS011;53422;49.296;6.900;2023-12-28T07:28:29;3.55;;;1.73;;
66567;SDS011;53422;49.296;6.900;2023-12-28T07:30:55;5.32;;;1.60;;
66567;SDS011;53422;49.296;6.900;2023-12-28T07:33:21;3.28;;;1.83;;
66567;SDS011;53422;49.296;6.900;2023-12-28T07:35:46;6.03;;;2.53;;
66567;SDS011;53422;49.296;6.900;2023-12-28T07:38:12;6.25;;;2.90;;
66567;SDS011;53422;49.296;6.900;2023-12-28T07:40:38;4.72;;;2.13;;
66567;SDS011;53422;49.296;6.900;2023-12-28T07:43:04;3.95;;;2.83;;
66567;SDS011;53422;49.296;6.900;2023-12-28T07:45:30;4.25;;;1.98;;
66567;SDS011;53422;49.296;6.900;2023-12-28T07:47:57;5.63;;;1.85;;
66567;SDS011;53422;49.296;6.900;2023-12-28T07:50:26;8.25;;;3.45;;
66567;SDS011;53422;49.296;6.900;2023-12-28T07:52:51;5.97;;;1.95;;
66567;SDS011;53422;49.296;6.900;2023-12-28T07:55:17;4.82;;;2.33;;
66567;SDS011;53422;49.296;6.900;2023-12-28T07:57:43;5.80;;;2.70;;
66567;SDS011;53422;49.296;6.900;2023-12-28T08:00:09;10.63;;;3.45;;
66567;SDS011;53422;49.296;6.900;2023-12-28T08:02:35;8.07;;;3.25;;
66567;SDS011;53422;49.296;6.900;2023-12-28T08:05:01;4.32;;;2.05;;
66567;SDS011;53422;49.296;6.900;2023-12-28T08:07:29;7.78;;;2.28;;
66567;SDS011;53422;49.296;6.900;2023-12-28T08:09:54;4.93;;;2.22;;
66567;SDS011;53422;49.296;6.900;2023-12-28T08:12:20;6.78;;;2.42;;
66567;SDS011;53422;49.296;6.900;2023-12-28T08:14:46;7.28;;;2.30;;
66567;SDS011;53422;49.296;6.900;2023-12-28T08:17:12;4.82;;;2.13;;
66567;SDS011;53422;49.296;6.900;2023-12-28T08:19:38;4.80;;;1.83;;
66567;SDS011;53422;49.296;6.900;2023-12-28T08:22:03;3.45;;;1.77;;
66567;SDS011;53422;49.296;6.900;2023-12-28T08:24:29;6.60;;;1.80;;
66567;SDS011;53422;49.296;6.900;2023-12-28T08:26:55;4.80;;;1.92;;
66567;SDS011;53422;49.296;6.900;2023-12-28T08:29:25;5.53;;;2.40;;
66567;SDS011;53422;49.296;6.900;2023-12-28T08:31:51;6.05;;;2.78;;
66567;SDS011;53422;49.296;6.900;2023-12-28T08:34:17;7.07;;;2.28;;
66567;SDS011;53422;49.296;6.900;2023-12-28T08:36:43;6.07;;;3.00;;
66567;SDS011;53422;49.296;6.900;2023-12-28T08:39:08;6.20;;;2.67;;
66567;SDS011;53422;49.296;6.900;2023-12-28T08:41:34;5.15;;;2.03;;
66567;SDS011;53422;49.296;6.900;2023-12-28T08:44:00;6.63;;;2.92;;
66567;SDS011;53422;49.296;6.900;2023-12-28T08:46:25;6.70;;;2.97;;
66567;SDS011;53422;49.296;6.900;2023-12-28T08:48:51;8.75;;;3.53;;
66567;SDS011;53422;49.296;6.900;2023-12-28T08:51:17;6.53;;;2.67;;
66567;SDS011;53422;49.296;6.900;2023-12-28T08:53:43;7.10;;;2.58;;
66567;SDS011;53422;49.296;6.900;2023-12-28T08:56:21;4.55;;;2.22;;
66567;SDS011;53422;49.296;6.900;2023-12-28T08:58:48;4.57;;;2.38;;
66567;SDS011;53422;49.296;6.900;2023-12-28T09:01:23;5.63;;;2.55;;
66567;SDS011;53422;49.296;6.900;2023-12-28T09:03:56;7.40;;;2.80;;
66567;SDS011;53422;49.296;6.900;2023-12-28T09:06:21;6.47;;;2.95;;
66567;SDS011;53422;49.296;6.900;2023-12-28T09:08:48;7.60;;;2.50;;
66567;SDS011;53422;49.296;6.900;2023-12-28T09:11:15;5.55;;;2.78;;
66567;SDS011;53422;49.296;6.900;2023-12-28T09:13:42;5.38;;;2.70;;
66567;SDS011;53422;49.296;6.900;2023-12-28T09:16:09;5.13;;;2.50;;
66567;SDS011;53422;49.296;6.900;2023-12-28T09:18:36;5.72;;;2.67;;
66567;SDS011;53422;49.296;6.900;2023-12-28T09:21:05;3.92;;;1.77;;
66567;SDS011;53422;49.296;6.900;2023-12-28T09:23:31;4.65;;;2.00;;
66567;SDS011;53422;49.296;6.900;2023-12-28T09:25:58;5.53;;;2.65;;
66567;SDS011;53422;49.296;6.900;2023-12-28T09:28:25;6.60;;;2.90;;
66567;SDS011;53422;49.296;6.900;2023-12-28T09:30:50;7.45;;;3.28;;
66567;SDS011;53422;49.296;6.900;2023-12-28T09:33:16;5.18;;;1.90;;
66567;SDS011;53422;49.296;6.900;2023-12-28T09:35:42;7.95;;;3.50;;
66567;SDS011;53422;49.296;6.900;2023-12-28T09:38:08;4.85;;;2.33;;
66567;SDS011;53422;49.296;6.900;2023-12-28T09:40:35;4.90;;;2.65;;
66567;SDS011;53422;49.296;6.900;2023-12-28T09:45:40;6.25;;;2.65;;
66567;SDS011;53422;49.296;6.900;2023-12-28T09:48:06;4.45;;;2.65;;
66567;SDS011;53422;49.296;6.900;2023-12-28T09:50:32;5.40;;;2.83;;
66567;SDS011;53422;49.296;6.900;2023-12-28T09:52:58;4.43;;;2.28;;
66567;SDS011;53422;49.296;6.900;2023-12-28T09:55:24;7.57;;;2.67;;
66567;SDS011;53422;49.296;6.900;2023-12-28T09:57:50;5.38;;;2.53;;
66567;SDS011;53422;49.296;6.900;2023-12-28T10:00:16;3.92;;;2.30;;
66567;SDS011;53422;49.296;6.900;2023-12-28T10:02:43;11.32;;;5.07;;
66567;SDS011;53422;49.296;6.900;2023-12-28T10:05:13;7.55;;;2.88;;
66567;SDS011;53422;49.296;6.900;2023-12-28T10:07:43;8.18;;;2.50;;
66567;SDS011;53422;49.296;6.900;2023-12-28T10:10:09;4.95;;;2.20;;
66567;SDS011;53422;49.296;6.900;2023-12-28T10:12:36;5.78;;;2.20;;
66567;SDS011;53422;49.296;6.900;2023-12-28T10:15:03;3.13;;;1.65;;
66567;SDS011;53422;49.296;6.900;2023-12-28T10:17:29;5.13;;;1.90;;
66567;SDS011;53422;49.296;6.900;2023-12-28T10:19:57;3.53;;;1.77;;
66567;SDS011;53422;49.296;6.900;2023-12-28T10:22:28;4.80;;;2.05;;
66567;SDS011;53422;49.296;6.900;2023-12-28T10:24:54;3.92;;;1.92;;
66567;SDS011;53422;49.296;6.900;2023-12-28T10:27:20;3.45;;;1.90;;
66567;SDS011;53422;49.296;6.900;2023-12-28T10:29:46;6.00;;;2.40;;
66567;SDS011;53422;49.296;6.900;2023-12-28T10:32:11;6.60;;;2.20;;
66567;SDS011;53422;49.296;6.900;2023-12-28T10:34:38;5.63;;;2.25;;
66567;SDS011;53422;49.296;6.900;2023-12-28T10:37:04;5.88;;;2.55;;
66567;SDS011;53422;49.296;6.900;2023-12-28T10:39:31;8.23;;;2.30;;
66567;SDS011;53422;49.296;6.900;2023-12-28T10:41:59;4.88;;;2.03;;
66567;SDS011;53422;49.296;6.900;2023-12-28T10:44:34;6.93;;;2.05;;
66567;SDS011;53422;49.296;6.900;2023-12-28T10:47:04;6.38;;;2.28;;
66567;SDS011;53422;49.296;6.900;2023-12-28T10:49:37;4.90;;;2.17;;
66567;SDS011;53422;49.296;6.900;2023-12-28T10:52:05;7.07;;;2.60;;
66567;SDS011;53422;49.296;6.900;2023-12-28T10:54:47;4.50;;;2.30;;
66567;SDS011;53422;49.296;6.900;2023-12-28T10:58:21;4.07;;;2.03;;
66567;SDS011;53422;49.296;6.900;2023-12-28T11:00:34;5.75;;;2.15;;
66567;SDS011;53422;49.296;6.900;2023-12-28T11:03:06;5.50;;;1.40;;
66567;SDS011;53422;49.296;6.900;2023-12-28T11:05:36;4.00;;;1.33;;
66567;SDS011;53422;49.296;6.900;2023-12-28T11:08:04;4.22;;;1.75;;
66567;SDS011;53422;49.296;6.900;2023-12-28T11:10:32;3.35;;;1.75;;
66567;SDS011;53422;49.296;6.900;2023-12-28T11:13:00;4.30;;;1.55;;
66567;SDS011;53422;49.296;6.900;2023-12-28T11:15:28;4.75;;;2.33;;
66567;SDS011;53422;49.296;6.900;2023-12-28T11:17:56;4.32;;;2.15;;
66567;SDS011;53422;49.296;6.900;2023-12-28T11:20:21;4.32;;;2.00;;
66567;SDS011;53422;49.296;6.900;2023-12-28T11:22:48;2.47;;;1.38;;
66567;SDS011;53422;49.296;6.900;2023-12-28T11:25:18;6.22;;;1.95;;
66567;SDS011;53422;49.296;6.900;2023-12-28T11:27:45;4.35;;;2.10;;
66567;SDS011;53422;49.296;6.900;2023-12-28T11:30:11;2.80;;;1.52;;
66567;SDS011;53422;49.296;6.900;2023-12-28T11:32:38;3.58;;;2.00;;
66567;SDS011;53422;49.296;6.900;2023-12-28T11:35:12;4.18;;;2.05;;
66567;SDS011;53422;49.296;6.900;2023-12-28T11:37:45;3.42;;;1.63;;
66567;SDS011;53422;49.296;6.900;2023-12-28T11:40:16;3.00;;;1.60;;
66567;SDS011;53422;49.296;6.900;2023-12-28T11:42:50;3.17;;;1.63;;
66567;SDS011;53422;49.296;6.900;2023-12-28T11:45:21;3.92;;;1.85;;
66567;SDS011;53422;49.296;6.900;2023-12-28T11:48:09;5.88;;;1.80;;
66567;SDS011;53422;49.296;6.900;2023-12-28T11:50:34;3.97;;;1.77;;
66567;SDS011;53422;49.296;6.900;2023-12-28T11:53:00;4.88;;;1.60;;
66567;SDS011;53422;49.296;6.900;2023-12-28T11:55:26;4.65;;;1.40;;
66567;SDS011;53422;49.296;6.900;2023-12-28T11:57:51;3.97;;;2.20;;
66567;SDS011;53422;49.296;6.900;2023-12-28T12:00:17;2.42;;;1.48;;
66567;SDS011;53422;49.296;6.900;2023-12-28T12:02:45;1.95;;;0.95;;
66567;SDS011;53422;49.296;6.900;2023-12-28T12:05:11;3.67;;;1.50;;
66567;SDS011;53422;49.296;6.900;2023-12-28T12:07:38;6.60;;;1.77;;
66567;SDS011;53422;49.296;6.900;2023-12-28T12:10:03;4.60;;;1.80;;
66567;SDS011;53422;49.296;6.900;2023-12-28T12:12:30;5.47;;;1.67;;
66567;SDS011;53422;49.296;6.900;2023-12-28T12:14:59;3.42;;;1.63;;
66567;SDS011;53422;49.296;6.900;2023-12-28T12:17:25;8.02;;;1.92;;
66567;SDS011;53422;49.296;6.900;2023-12-28T12:19:51;3.72;;;1.70;;
66567;SDS011;53422;49.296;6.900;2023-12-28T12:22:20;3.13;;;1.60;;
66567;SDS011;53422;49.296;6.900;2023-12-28T12:24:47;4.07;;;1.70;;
66567;SDS011;53422;49.296;6.900;2023-12-28T12:27:14;4.10;;;1.90;;
66567;SDS011;53422;49.296;6.900;2023-12-28T12:29:40;3.40;;;1.65;;
66567;SDS011;53422;49.296;6.900;2023-12-28T12:32:05;3.97;;;1.42;;
66567;SDS011;53422;49.296;6.900;2023-12-28T12:34:32;3.17;;;2.15;;
66567;SDS011;53422;49.296;6.900;2023-12-28T12:36:58;2.88;;;1.40;;
66567;SDS011;53422;49.296;6.900;2023-12-28T12:39:25;3.67;;;1.90;;
66567;SDS011;53422;49.296;6.900;2023-12-28T12:41:51;3.17;;;1.73;;
66567;SDS011;53422;49.296;6.900;2023-12-28T12:44:19;3.10;;;1.67;;
66567;SDS011;53422;49.296;6.900;2023-12-28T12:46:45;4.10;;;1.73;;
66567;SDS011;53422;49.296;6.900;2023-12-28T12:49:11;3.63;;;1.63;;
66567;SDS011;53422;49.296;6.900;2023-12-28T12:51:37;4.38;;;1.83;;
66567;SDS011;53422;49.296;6.900;2023-12-28T12:54:05;3.65;;;1.90;;
66567;SDS011;53422;49.296;6.900;2023-12-28T12:58:59;3.50;;;1.50;;
66567;SDS011;53422;49.296;6.900;2023-12-28T13:01:25;4.78;;;1.95;;
66567;SDS011;53422;49.296;6.900;2023-12-28T13:03:51;4.25;;;2.10;;
66567;SDS011;53422;49.296;6.900;2023-12-28T13:06:17;3.40;;;1.70;;
66567;SDS011;53422;49.296;6.900;2023-12-28T13:08:43;3.03;;;1.60;;
66567;SDS011;53422;49.296;6.900;2023-12-28T13:11:09;2.53;;;1.50;;
66567;SDS011;53422;49.296;6.900;2023-12-28T13:13:35;3.10;;;1.65;;
66567;SDS011;53422;49.296;6.900;2023-12-28T13:16:01;4.50;;;1.67;;
66567;SDS011;53422;49.296;6.900;2023-12-28T13:18:28;3.33;;;1.83;;
66567;SDS011;53422;49.296;6.900;2023-12-28T13:20:53;4.45;;;1.75;;
66567;SDS011;53422;49.296;6.900;2023-12-28T13:23:19;4.30;;;2.10;;
66567;SDS011;53422;49.296;6.900;2023-12-28T13:25:45;4.20;;;2.72;;
66567;SDS011;53422;49.296;6.900;2023-12-28T13:28:11;4.25;;;2.38;;
66567;SDS011;53422;49.296;6.900;2023-12-28T13:30:39;7.30;;;2.22;;
66567;SDS011;53422;49.296;6.900;2023-12-28T13:33:05;5.28;;;2.50;;
66567;SDS011;53422;49.296;6.900;2023-12-28T13:35:31;3.88;;;1.90;;
66567;SDS011;53422;49.296;6.900;2023-12-28T13:38:00;6.45;;;1.90;;
66567;SDS011;53422;49.296;6.900;2023-12-28T13:40:29;3.75;;;2.63;;
66567;SDS011;53422;49.296;6.900;2023-12-28T13:42:56;6.38;;;2.20;;
66567;SDS011;53422;49.296;6.900;2023-12-28T13:45:22;5.07;;;1.88;;
66567;SDS011;53422;49.296;6.900;2023-12-28T13:47:47;3.70;;;1.75;;
66567;SDS011;53422;49.296;6.900;2023-12-28T13:50:13;3.88;;;2.03;;
66567;SDS011;53422;49.296;6.900;2023-12-28T13:52:39;5.18;;;2.63;;
66567;SDS011;53422;49.296;6.900;2023-12-28T13:55:04;7.68;;;3.42;;
66567;SDS011;53422;49.296;6.900;2023-12-28T13:57:30;8.00;;;3.42;;
66567;SDS011;53422;49.296;6.900;2023-12-28T13:59:57;6.38;;;2.28;;
66567;SDS011;53422;49.296;6.900;2023-12-28T14:04:51;7.10;;;2.85;;
66567;SDS011;53422;49.296;6.900;2023-12-28T14:07:17;5.82;;;3.03;;
66567;SDS011;53422;49.296;6.900;2023-12-28T14:09:42;8.55;;;2.95;;
66567;SDS011;53422;49.296;6.900;2023-12-28T14:12:08;8.90;;;3.72;;
66567;SDS011;53422;49.296;6.900;2023-12-28T14:14:34;8.93;;;3.47;;
66567;SDS011;53422;49.296;6.900;2023-12-28T14:17:00;9.70;;;3.88;;
66567;SDS011;53422;49.296;6.900;2023-12-28T14:19:25;7.88;;;3.67;;
66567;SDS011;53422;49.296;6.900;2023-12-28T14:21:51;6.90;;;2.90;;
66567;SDS011;53422;49.296;6.900;2023-12-28T14:24:17;7.68;;;3.42;;
66567;SDS011;53422;49.296;6.900;2023-12-28T14:26:43;9.25;;;4.18;;
66567;SDS011;53422;49.296;6.900;2023-12-28T14:29:10;6.97;;;3.38;;
66567;SDS011;53422;49.296;6.900;2023-12-28T14:31:36;5.95;;;2.83;;
66567;SDS011;53422;49.296;6.900;2023-12-28T14:34:02;6.45;;;3.15;;
66567;SDS011;53422;49.296;6.900;2023-12-28T14:36:32;5.63;;;3.00;;
66567;SDS011;53422;49.296;6.900;2023-12-28T14:38:59;6.72;;;3.05;;
66567;SDS011;53422;49.296;6.900;2023-12-28T14:41:26;6.88;;;3.08;;
66567;SDS011;53422;49.296;6.900;2023-12-28T14:43:53;5.30;;;2.85;;
66567;SDS011;53422;49.296;6.900;2023-12-28T14:48:46;3.50;;;1.80;;
66567;SDS011;53422;49.296;6.900;2023-12-28T14:51:12;4.68;;;2.22;;
66567;SDS011;53422;49.296;6.900;2023-12-28T14:53:38;3.33;;;1.80;;
66567;SDS011;53422;49.296;6.900;2023-12-28T14:56:03;4.55;;;2.47;;